createdAt,value
2022-11-06T00:00:46.456Z,5.44
2022-11-06T00:03:48.959Z,5.32
2022-11-06T00:06:50.736Z,5.26
2022-11-06T00:09:53.099Z,5.31
2022-11-06T00:12:55.558Z,5.20
2022-11-06T00:16:03.519Z,5.10
2022-11-06T00:19:06.414Z,5.10
2022-11-06T00:22:08.861Z,5.12
2022-11-06T00:25:11.669Z,5.26
2022-11-06T00:28:14.539Z,5.32
2022-11-06T00:31:24.092Z,5.48
2022-11-06T00:34:26.602Z,5.44
2022-11-06T00:37:29.141Z,5.61
2022-11-06T00:40:31.662Z,5.76
2022-11-06T00:43:35.754Z,5.88
2022-11-06T00:46:39.593Z,5.92
2022-11-06T00:49:42.153Z,5.95
2022-11-06T00:52:44.873Z,6.09
2022-11-06T00:55:47.352Z,6.12
2022-11-06T00:58:49.844Z,5.97
2022-11-06T01:01:53.721Z,5.85
2022-11-06T01:04:56.273Z,5.78
2022-11-06T01:07:58.723Z,5.84
2022-11-06T01:11:07.439Z,5.99
2022-11-06T01:14:12.754Z,5.99
2022-11-06T01:17:16.569Z,6.04
2022-11-06T01:20:19.161Z,6.02
2022-11-06T01:23:21.703Z,6.01
2022-11-06T01:26:37.203Z,6.13
2022-11-06T01:29:41.002Z,6.10
2022-11-06T01:32:44.785Z,6.02
2022-11-06T01:35:48.327Z,6.12
2022-11-06T01:38:53.367Z,6.06
2022-11-06T01:41:56.282Z,6.08
2022-11-06T01:45:34.444Z,6.09
2022-11-06T01:48:40.564Z,6.16
2022-11-06T01:51:48.419Z,6.24
2022-11-06T01:55:01.689Z,6.25
2022-11-06T01:58:06.687Z,6.25
2022-11-06T02:01:09.342Z,6.22
2022-11-06T02:04:16.778Z,6.23
2022-11-06T02:07:20.788Z,6.19
2022-11-06T02:10:23.543Z,6.13
2022-11-06T02:13:38.536Z,6.24
2022-11-06T02:16:47.738Z,6.31
2022-11-06T02:20:02.245Z,6.42
2022-11-06T02:23:26.217Z,6.47
2022-11-06T02:26:47.062Z,6.50
2022-11-06T02:29:57.445Z,6.48
2022-11-06T02:33:03.997Z,6.46
2022-11-06T02:36:10.909Z,6.42
2022-11-06T02:39:17.739Z,6.42
2022-11-06T02:42:21.937Z,6.39
2022-11-06T02:45:26.754Z,6.30
2022-11-06T02:48:34.984Z,6.34
2022-11-06T02:51:50.397Z,6.31
2022-11-06T02:54:58.956Z,6.39
2022-11-06T02:58:09.512Z,6.41
2022-11-06T03:01:19.089Z,6.55
2022-11-06T03:04:27.684Z,6.55
2022-11-06T03:07:36.367Z,6.58
2022-11-06T03:10:44.629Z,6.60
2022-11-06T03:13:55.206Z,6.49
2022-11-06T03:17:00.493Z,6.63
2022-11-06T03:20:11.223Z,6.57
2022-11-06T03:23:19.426Z,6.57
2022-11-06T03:26:27.890Z,6.54
2022-11-06T03:29:40.734Z,6.51
2022-11-06T03:32:50.081Z,6.42
2022-11-06T03:35:57.924Z,6.39
2022-11-06T03:39:04.038Z,6.32
2022-11-06T03:42:11.925Z,6.32
2022-11-06T03:45:19.092Z,6.22
2022-11-06T03:48:27.225Z,6.21
2022-11-06T03:51:37.493Z,6.18
2022-11-06T03:54:45.247Z,6.23
2022-11-06T03:57:53.514Z,6.21
2022-11-06T04:00:59.332Z,6.21
2022-11-06T04:04:06.888Z,6.18
2022-11-06T04:07:13.279Z,6.13
2022-11-06T04:10:33.614Z,6.11
2022-11-06T04:13:56.152Z,6.12
2022-11-06T04:17:03.142Z,6.11
2022-11-06T04:20:32.809Z,6.07
2022-11-06T04:23:44.945Z,6.11
2022-11-06T04:26:55.905Z,6.11
2022-11-06T04:30:06.295Z,6.17
2022-11-06T04:33:15.485Z,6.22
2022-11-06T04:36:27.193Z,6.17
2022-11-06T04:39:37.730Z,6.13
2022-11-06T04:42:49.074Z,6.11
2022-11-06T04:45:56.062Z,6.06
2022-11-06T04:49:02.820Z,6.08
2022-11-06T04:52:08.317Z,6.01
2022-11-06T04:55:10.830Z,5.91
2022-11-06T04:58:13.886Z,5.93
2022-11-06T05:01:16.623Z,5.91
2022-11-06T05:04:20.654Z,5.93
2022-11-06T05:07:23.209Z,5.79
2022-11-06T05:10:25.700Z,5.84
2022-11-06T05:13:28.166Z,5.83
2022-11-06T05:16:30.927Z,5.83
2022-11-06T05:19:34.723Z,5.83
2022-11-06T05:23:00.632Z,5.84
2022-11-06T05:26:03.242Z,5.88
2022-11-06T05:29:06.046Z,5.86
2022-11-06T05:32:08.498Z,5.86
2022-11-06T05:35:12.311Z,6.19
2022-11-06T05:38:15.158Z,6.26
2022-11-06T05:41:17.947Z,6.32
2022-11-06T05:44:20.436Z,6.24
2022-11-06T05:47:23.162Z,6.15
2022-11-06T05:50:27.441Z,6.09
2022-11-06T05:53:30.809Z,6.01
2022-11-06T05:56:33.262Z,6.02
2022-11-06T05:59:35.737Z,6.09
2022-11-06T06:02:39.105Z,6.14
2022-11-06T06:05:42.956Z,6.12
2022-11-06T06:08:45.412Z,6.17
2022-11-06T06:11:51.788Z,6.29
2022-11-06T06:14:54.657Z,6.28
2022-11-06T06:17:58.651Z,6.22
2022-11-06T06:21:02.583Z,6.26
2022-11-06T06:24:05.905Z,6.19
2022-11-06T06:27:08.746Z,6.28
2022-11-06T06:30:12.673Z,6.26
2022-11-06T06:33:15.165Z,6.28
2022-11-06T06:36:18.968Z,6.37
2022-11-06T06:39:21.817Z,6.44
2022-11-06T06:42:30.198Z,6.49
2022-11-06T06:45:33.674Z,6.63
2022-11-06T06:48:36.439Z,6.92
2022-11-06T06:51:40.324Z,7.39
2022-11-06T06:54:42.798Z,7.24
2022-11-06T06:57:45.266Z,7.11
2022-11-06T07:00:48.234Z,6.89
2022-11-06T07:03:50.900Z,7.08
2022-11-06T07:06:55.601Z,7.18
2022-11-06T07:09:58.072Z,7.22
2022-11-06T07:13:02.165Z,7.22
2022-11-06T07:16:06.708Z,7.17
2022-11-06T07:19:09.263Z,7.09
2022-11-06T07:22:13.075Z,6.98
2022-11-06T07:25:15.727Z,7.04
2022-11-06T07:28:18.537Z,7.10
2022-11-06T07:31:21.318Z,7.22
2022-11-06T07:34:23.838Z,7.41
2022-11-06T07:37:27.662Z,7.37
2022-11-06T07:40:30.119Z,7.49
2022-11-06T07:43:32.782Z,7.50
2022-11-06T07:46:35.420Z,7.82
2022-11-06T07:49:37.981Z,7.64
2022-11-06T07:52:41.849Z,7.66
2022-11-06T07:55:49.205Z,7.92
2022-11-06T07:58:51.679Z,8.00
2022-11-06T08:01:54.414Z,8.24
2022-11-06T08:04:56.995Z,8.15
2022-11-06T08:08:00.774Z,8.41
2022-11-06T08:11:03.998Z,8.51
2022-11-06T08:14:06.496Z,8.59
2022-11-06T08:17:09.177Z,8.73
2022-11-06T08:20:12.248Z,8.85
2022-11-06T08:23:16.022Z,8.90
2022-11-06T08:26:18.590Z,8.90
2022-11-06T08:29:21.061Z,8.73
2022-11-06T08:32:23.596Z,8.86
2022-11-06T08:35:26.093Z,8.83
2022-11-06T08:38:29.919Z,8.89
2022-11-06T08:41:32.377Z,9.32
2022-11-06T08:44:34.850Z,9.46
2022-11-06T08:47:37.315Z,9.69
2022-11-06T08:50:41.405Z,9.60
2022-11-06T08:53:45.315Z,9.82
2022-11-06T08:56:48.896Z,9.56
2022-11-06T08:59:51.330Z,9.57
2022-11-06T09:02:59.027Z,9.74
2022-11-06T09:06:01.604Z,9.75
2022-11-06T09:09:05.721Z,9.94
2022-11-06T09:12:09.011Z,9.91
2022-11-06T09:15:11.794Z,10.17
2022-11-06T09:18:14.363Z,10.34
2022-11-06T09:21:16.895Z,10.11
2022-11-06T09:24:37.180Z,10.33
2022-11-06T09:27:44.291Z,10.59
2022-11-06T09:30:46.839Z,10.90
2022-11-06T09:33:51.026Z,10.82
2022-11-06T09:36:53.542Z,10.56
2022-11-06T09:40:01.787Z,11.18
2022-11-06T09:43:27.344Z,11.44
2022-11-06T09:46:43.899Z,11.61
2022-11-06T09:49:50.810Z,11.80
2022-11-06T09:53:03.075Z,11.69
2022-11-06T09:56:13.891Z,11.96
2022-11-06T09:59:19.794Z,12.25
2022-11-06T10:02:31.856Z,12.03
2022-11-06T10:05:37.998Z,12.17
2022-11-06T10:08:43.830Z,12.46
2022-11-06T10:11:59.242Z,12.98
2022-11-06T10:15:08.534Z,12.82
2022-11-06T10:18:18.656Z,12.53
2022-11-06T10:21:24.884Z,12.59
2022-11-06T10:24:38.373Z,12.73
2022-11-06T10:27:48.027Z,13.01
2022-11-06T10:30:59.970Z,13.08
2022-11-06T10:34:04.345Z,13.04
2022-11-06T10:37:12.705Z,12.36
2022-11-06T10:40:19.503Z,12.78
2022-11-06T10:43:28.401Z,13.42
2022-11-06T10:46:35.880Z,13.69
2022-11-06T10:49:45.654Z,13.71
2022-11-06T10:52:54.674Z,13.47
2022-11-06T10:56:28.747Z,12.95
2022-11-06T10:59:33.129Z,13.20
2022-11-06T11:02:40.620Z,13.16
2022-11-06T11:05:44.664Z,13.25
2022-11-06T11:08:48.863Z,13.65
2022-11-06T11:11:51.362Z,13.38
2022-11-06T11:15:13.651Z,13.46
2022-11-06T11:18:23.019Z,13.43
2022-11-06T11:21:27.809Z,13.47
2022-11-06T11:24:30.643Z,13.20
2022-11-06T11:27:38.309Z,12.96
2022-11-06T11:30:42.158Z,13.01
2022-11-06T11:33:51.893Z,12.98
2022-11-06T11:36:58.117Z,12.87
2022-11-06T11:40:20.817Z,13.14
2022-11-06T11:43:26.186Z,13.10
2022-11-06T11:46:29.981Z,12.81
2022-11-06T11:49:34.025Z,12.85
2022-11-06T11:52:42.668Z,12.95
2022-11-06T11:55:48.963Z,13.05
2022-11-06T11:58:54.281Z,13.17
2022-11-06T12:02:02.240Z,12.76
2022-11-06T12:05:10.344Z,12.87
2022-11-06T12:08:22.762Z,12.91
2022-11-06T12:11:27.442Z,13.01
2022-11-06T12:14:34.064Z,12.97
2022-11-06T12:17:41.533Z,13.20
2022-11-06T12:20:51.599Z,13.26
2022-11-06T12:23:58.707Z,13.09
2022-11-06T12:27:05.738Z,13.16
2022-11-06T12:30:12.282Z,13.21
2022-11-06T12:33:20.302Z,13.42
2022-11-06T12:36:29.302Z,13.39
2022-11-06T12:39:35.519Z,13.62
2022-11-06T12:42:38.858Z,13.73
2022-11-06T12:46:08.491Z,13.58
2022-11-06T12:49:23.524Z,13.48
2022-11-06T12:52:38.559Z,13.39
2022-11-06T12:55:44.802Z,13.51
2022-11-06T12:59:06.594Z,13.82
2022-11-06T13:02:25.583Z,13.90
2022-11-06T13:05:34.660Z,13.65
2022-11-06T13:08:46.712Z,13.52
2022-11-06T13:11:55.026Z,13.27
2022-11-06T13:15:12.313Z,13.44
2022-11-06T13:18:19.821Z,13.20
2022-11-06T13:21:31.847Z,13.23
2022-11-06T13:24:38.772Z,13.19
2022-11-06T13:27:48.557Z,13.48
2022-11-06T13:30:52.865Z,13.61
2022-11-06T13:33:59.505Z,13.74
2022-11-06T13:37:07.264Z,13.70
2022-11-06T13:40:22.595Z,13.82
2022-11-06T13:43:29.829Z,13.68
2022-11-06T13:46:40.596Z,13.63
2022-11-06T13:49:49.054Z,13.73
2022-11-06T13:52:59.447Z,13.67
2022-11-06T13:56:15.150Z,13.61
2022-11-06T13:59:55.582Z,13.66
2022-11-06T14:03:30.906Z,13.56
2022-11-06T14:06:36.026Z,13.46
2022-11-06T14:09:45.217Z,13.36
2022-11-06T14:12:49.069Z,13.25
2022-11-06T14:16:00.846Z,13.20
2022-11-06T14:19:08.279Z,12.98
2022-11-06T14:22:25.630Z,12.78
2022-11-06T14:26:00.302Z,12.51
2022-11-06T14:29:37.043Z,12.33
2022-11-06T14:32:46.051Z,12.34
2022-11-06T14:35:53.615Z,12.22
2022-11-06T14:38:57.303Z,12.10
2022-11-06T14:42:03.328Z,12.09
2022-11-06T14:45:14.386Z,11.96
2022-11-06T14:48:28.007Z,11.89
2022-11-06T14:51:31.349Z,11.71
2022-11-06T14:54:40.540Z,11.66
2022-11-06T14:57:47.963Z,11.55
2022-11-06T15:00:55.234Z,11.48
2022-11-06T15:04:03.050Z,11.34
2022-11-06T15:07:10.772Z,11.18
2022-11-06T15:10:47.393Z,11.09
2022-11-06T15:13:51.973Z,10.93
2022-11-06T15:17:04.037Z,10.85
2022-11-06T15:20:18.638Z,10.88
2022-11-06T15:23:28.400Z,10.88
2022-11-06T15:26:42.365Z,10.77
2022-11-06T15:29:49.825Z,10.62
2022-11-06T15:32:54.917Z,10.45
2022-11-06T15:36:03.193Z,10.38
2022-11-06T15:39:24.977Z,10.02
2022-11-06T15:42:30.977Z,10.10
2022-11-06T15:45:34.901Z,10.08
2022-11-06T15:48:37.631Z,9.78
2022-11-06T15:51:41.111Z,9.85
2022-11-06T15:54:44.402Z,9.73
2022-11-06T15:57:46.918Z,9.71
2022-11-06T16:00:50.868Z,9.86
2022-11-06T16:03:55.668Z,9.94
2022-11-06T16:06:58.400Z,9.93
2022-11-06T16:10:01.126Z,9.77
2022-11-06T16:13:05.247Z,9.56
2022-11-06T16:16:33.846Z,9.49
2022-11-06T16:19:39.988Z,9.47
2022-11-06T16:22:43.085Z,9.42
2022-11-06T16:25:46.348Z,9.35
2022-11-06T16:28:51.232Z,9.43
2022-11-06T16:32:03.335Z,9.26
2022-11-06T16:35:31.304Z,9.18
2022-11-06T16:38:43.442Z,9.13
2022-11-06T16:42:01.587Z,9.20
2022-11-06T16:45:17.761Z,9.22
2022-11-06T16:48:35.778Z,9.35
2022-11-06T16:51:38.591Z,9.29
2022-11-06T16:54:41.111Z,9.42
2022-11-06T16:57:46.058Z,9.41
2022-11-06T17:00:58.859Z,9.33
2022-11-06T17:04:05.293Z,9.37
2022-11-06T17:07:20.824Z,9.40
2022-11-06T17:10:37.269Z,9.47
2022-11-06T17:13:42.288Z,9.25
2022-11-06T17:16:50.565Z,9.40
2022-11-06T17:19:54.702Z,9.41
2022-11-06T17:22:57.173Z,9.11
2022-11-06T17:26:03.041Z,9.22
2022-11-06T17:29:06.081Z,9.21
2022-11-06T17:32:08.530Z,9.25
2022-11-06T17:35:12.334Z,9.21
2022-11-06T17:38:15.778Z,9.15
2022-11-06T17:41:29.779Z,9.30
2022-11-06T17:44:32.489Z,9.37
2022-11-06T17:47:35.032Z,9.34
2022-11-06T17:50:52.821Z,9.38
2022-11-06T17:53:55.267Z,9.25
2022-11-06T17:56:59.715Z,9.18
2022-11-06T18:00:02.209Z,9.11
2022-11-06T18:03:05.231Z,9.11
2022-11-06T18:06:11.609Z,9.12
2022-11-06T18:09:14.769Z,9.11
2022-11-06T18:12:19.250Z,9.16
2022-11-06T18:15:21.696Z,9.16
2022-11-06T18:18:24.571Z,9.16
2022-11-06T18:21:28.550Z,9.25
2022-11-06T18:24:31.042Z,8.94
2022-11-06T18:27:33.517Z,8.97
2022-11-06T18:30:35.976Z,8.92
2022-11-06T18:33:38.522Z,8.91
2022-11-06T18:36:42.323Z,8.85
2022-11-06T18:39:44.902Z,8.64
2022-11-06T18:42:47.360Z,8.70
2022-11-06T18:45:50.446Z,8.45
2022-11-06T18:48:53.068Z,8.64
2022-11-06T18:51:56.896Z,8.72
2022-11-06T18:55:01.003Z,8.80
2022-11-06T18:58:03.634Z,8.82
2022-11-06T19:01:07.080Z,8.85
2022-11-06T19:04:10.955Z,8.77
2022-11-06T19:07:18.429Z,8.70
2022-11-06T19:10:20.906Z,8.72
2022-11-06T19:13:23.608Z,8.79
2022-11-06T19:16:26.323Z,8.71
2022-11-06T19:19:28.958Z,8.67
2022-11-06T19:22:33.870Z,8.92
2022-11-06T19:25:36.314Z,9.13
2022-11-06T19:28:40.283Z,8.80
2022-11-06T19:31:43.036Z,8.77
2022-11-06T19:34:45.504Z,8.89
2022-11-06T19:37:49.372Z,8.83
2022-11-06T19:40:56.157Z,8.96
2022-11-06T19:43:58.791Z,8.90
2022-11-06T19:47:01.286Z,8.87
2022-11-06T19:50:05.095Z,8.96
2022-11-06T19:53:08.896Z,8.99
2022-11-06T19:56:16.448Z,8.90
2022-11-06T19:59:19.168Z,9.06
2022-11-06T20:02:21.831Z,8.96
2022-11-06T20:05:24.431Z,8.99
2022-11-06T20:08:28.253Z,9.08
2022-11-06T20:11:30.713Z,9.12
2022-11-06T20:14:33.316Z,9.11
2022-11-06T20:17:35.805Z,9.14
2022-11-06T20:20:38.320Z,9.21
2022-11-06T20:23:42.162Z,9.17
2022-11-06T20:26:44.681Z,9.05
2022-11-06T20:29:47.149Z,9.12
2022-11-06T20:32:49.759Z,9.11
2022-11-06T20:35:52.315Z,9.13
2022-11-06T20:38:59.014Z,9.22
2022-11-06T20:42:01.462Z,9.11
2022-11-06T20:45:04.181Z,9.07
2022-11-06T20:48:09.079Z,9.18
2022-11-06T20:51:14.538Z,9.13
2022-11-06T20:54:18.614Z,9.10
2022-11-06T20:57:21.080Z,9.05
2022-11-06T21:00:23.601Z,9.04
2022-11-06T21:03:26.051Z,9.03
2022-11-06T21:06:29.953Z,9.05
2022-11-06T21:09:33.788Z,9.03
2022-11-06T21:12:36.238Z,9.00
2022-11-06T21:15:38.730Z,8.92
2022-11-06T21:18:42.011Z,8.95
2022-11-06T21:21:44.550Z,8.99
2022-11-06T21:24:48.334Z,8.95
2022-11-06T21:27:50.769Z,8.85
2022-11-06T21:30:53.732Z,8.88
2022-11-06T21:33:58.686Z,8.96
2022-11-06T21:37:02.817Z,8.90
2022-11-06T21:40:09.650Z,8.89
2022-11-06T21:43:12.470Z,8.93
2022-11-06T21:46:15.684Z,8.86
2022-11-06T21:49:18.346Z,8.88
2022-11-06T21:52:39.086Z,8.87
2022-11-06T21:56:01.843Z,8.97
2022-11-06T21:59:05.962Z,8.93
2022-11-06T22:02:10.254Z,8.90
2022-11-06T22:05:12.873Z,8.83
2022-11-06T22:08:15.608Z,9.00
2022-11-06T22:11:22.077Z,9.06
2022-11-06T22:14:24.700Z,8.97
2022-11-06T22:17:27.273Z,8.95
2022-11-06T22:20:29.784Z,9.04
2022-11-06T22:23:32.443Z,9.03
2022-11-06T22:26:37.749Z,8.99
2022-11-06T22:29:40.329Z,9.01
2022-11-06T22:32:42.964Z,8.98
2022-11-06T22:35:45.441Z,9.04
2022-11-06T22:38:48.759Z,9.14
2022-11-06T22:41:52.767Z,9.10
2022-11-06T22:44:55.302Z,9.12
2022-11-06T22:47:58.122Z,9.12
2022-11-06T22:51:02.958Z,9.17
2022-11-06T22:54:06.056Z,9.15
2022-11-06T22:57:10.039Z,9.19
2022-11-06T23:00:14.081Z,9.07
2022-11-06T23:03:16.902Z,8.98
2022-11-06T23:06:19.623Z,8.95
2022-11-06T23:09:22.085Z,8.93
2022-11-06T23:12:25.864Z,9.01
2022-11-06T23:15:28.353Z,9.03
2022-11-06T23:18:30.853Z,9.02
2022-11-06T23:21:33.317Z,9.03
2022-11-06T23:24:35.812Z,9.01
2022-11-06T23:27:43.284Z,9.04
2022-11-06T23:30:48.113Z,8.97
2022-11-06T23:33:50.862Z,9.00
2022-11-06T23:36:53.336Z,9.06
2022-11-06T23:39:55.800Z,8.88
2022-11-06T23:42:59.601Z,9.14
2022-11-06T23:46:01.103Z,9.07
2022-11-06T23:49:03.671Z,9.01
2022-11-06T23:52:06.343Z,9.00
2022-11-06T23:55:09.514Z,9.03
2022-11-06T23:58:13.302Z,9.09
